createdAt,value
2018-12-15T13:07:10.663Z,70.03
2018-12-15T13:08:10.632Z,70.45
2018-12-15T13:09:10.600Z,70.90
2018-12-15T13:10:10.577Z,70.65
2018-12-15T13:11:10.574Z,70.13
2018-12-15T13:12:10.559Z,71.18
2018-12-15T13:13:19.482Z,71.18
2018-12-15T13:14:10.574Z,71.70
2018-12-15T13:15:10.534Z,70.45
2018-12-15T13:16:10.514Z,70.45
2018-12-15T13:17:10.521Z,70.34
2018-12-15T13:18:10.553Z,71.28
2018-12-15T13:19:10.521Z,71.18
2018-12-15T13:20:10.470Z,70.97
2018-12-15T13:21:10.459Z,71.18
2018-12-15T13:22:10.519Z,71.39
2018-12-15T13:23:10.449Z,71.18
2018-12-15T13:24:10.457Z,71.28
2018-12-15T13:25:10.442Z,71.70
2018-12-15T13:26:10.437Z,71.28
2018-12-15T13:27:18.043Z,70.45
2018-12-15T13:28:19.122Z,70.55
2018-12-15T13:29:10.462Z,70.65
2018-12-15T13:30:10.387Z,71.08
2018-12-15T13:31:10.417Z,70.55
2018-12-15T13:32:10.346Z,70.55
2018-12-15T13:33:10.346Z,71.31
2018-12-15T13:34:10.433Z,70.45
2018-12-15T13:35:10.344Z,71.08
2018-12-15T13:36:10.308Z,71.18
2018-12-15T13:37:10.298Z,70.65
2018-12-15T13:38:10.303Z,70.34
2018-12-15T13:39:10.320Z,71.28
2018-12-15T13:40:10.286Z,70.76
2018-12-15T13:41:10.278Z,70.65
2018-12-15T13:42:10.248Z,70.65
2018-12-15T13:43:10.276Z,70.90
2018-12-15T13:44:10.271Z,70.55
2018-12-15T13:45:10.304Z,70.37
2018-12-15T13:46:10.212Z,70.27
2018-12-15T13:47:10.298Z,70.79
2018-12-15T13:48:10.201Z,70.65
2018-12-15T13:49:10.207Z,70.58
2018-12-15T13:50:10.516Z,70.34
2018-12-15T13:51:10.161Z,70.90
2018-12-15T13:52:10.153Z,71.28
2018-12-15T13:53:10.154Z,71.28
2018-12-15T13:54:10.138Z,70.58
2018-12-15T13:55:10.264Z,71.00
2018-12-15T13:56:10.182Z,70.17
2018-12-15T13:57:10.098Z,70.48
2018-12-15T13:58:10.087Z,70.90
2018-12-15T13:59:10.081Z,70.68
2018-12-15T14:00:10.118Z,70.06
2018-12-15T14:01:10.064Z,69.95
2018-12-15T14:02:10.068Z,69.85
2018-12-15T14:03:10.039Z,70.79
2018-12-15T14:04:10.036Z,70.37
2018-12-15T14:05:10.059Z,70.90
2018-12-15T14:06:10.091Z,71.00
2018-12-15T14:07:10.060Z,70.37
2018-12-15T14:08:09.992Z,70.48
2018-12-15T14:09:10.050Z,70.09
2018-12-15T14:10:10.019Z,70.58
2018-12-15T14:11:09.953Z,70.79
2018-12-15T14:12:10.025Z,70.40
2018-12-15T14:13:09.946Z,70.51
2018-12-15T14:14:09.930Z,70.51
2018-12-15T14:15:09.942Z,71.45
2018-12-15T14:16:09.959Z,71.11
2018-12-15T14:17:09.895Z,71.14
2018-12-15T14:18:09.892Z,70.51
2018-12-15T14:19:09.894Z,71.34
2018-12-15T14:20:09.875Z,71.34
2018-12-15T14:21:09.895Z,71.34
2018-12-15T14:22:09.903Z,70.79
2018-12-15T14:23:09.853Z,71.00
2018-12-15T14:24:10.269Z,70.48
2018-12-15T14:25:09.809Z,70.68
2018-12-15T14:26:09.840Z,70.09
2018-12-15T14:27:09.804Z,70.40
2018-12-15T14:28:09.774Z,70.83
2018-12-15T14:29:09.795Z,70.61
2018-12-15T14:30:09.760Z,70.61
2018-12-15T14:31:10.203Z,70.51
2018-12-15T14:32:09.736Z,71.28
2018-12-15T14:33:09.734Z,70.72
2018-12-15T14:34:09.741Z,71.34
2018-12-15T14:35:09.741Z,70.51
2018-12-15T14:36:09.938Z,72.08
2018-12-15T14:37:09.710Z,71.24
2018-12-15T14:38:09.685Z,71.59
2018-12-15T14:39:09.675Z,71.97
2018-12-15T14:40:09.705Z,72.08
2018-12-15T14:41:18.497Z,70.65
2018-12-15T14:42:17.216Z,70.96
2018-12-15T14:43:18.656Z,70.65
2018-12-15T14:45:20.004Z,71.59
2018-12-15T14:47:31.191Z,71.48
2018-12-15T14:48:30.975Z,70.96
2018-12-15T14:49:30.687Z,70.75
2018-12-15T14:50:30.685Z,70.65
2018-12-15T14:51:30.668Z,70.75
2018-12-15T14:52:30.720Z,71.38
2018-12-15T14:53:30.848Z,71.38
2018-12-15T14:54:30.641Z,72.85
2018-12-15T14:55:38.211Z,72.11
2018-12-15T14:56:30.845Z,72.32
2018-12-15T14:57:39.560Z,71.83
2018-12-15T14:58:30.735Z,72.01
2018-12-15T14:59:38.235Z,72.42
2018-12-15T15:00:30.603Z,72.56
2018-12-15T15:01:30.585Z,72.46
2018-12-15T15:02:30.843Z,71.94
2018-12-15T15:03:31.252Z,71.94
2018-12-15T15:04:40.020Z,72.67
2018-12-15T15:07:41.913Z,72.67
2018-12-15T15:10:25.111Z,73.54
2018-12-15T15:12:34.353Z,72.67
2018-12-15T15:13:34.851Z,72.60
2018-12-15T15:14:34.228Z,73.30
2018-12-15T15:15:41.791Z,73.19
2018-12-15T15:16:34.252Z,73.33
2018-12-15T15:17:41.952Z,73.02
2018-12-15T15:18:44.296Z,72.60
2018-12-15T15:19:34.189Z,72.49
2018-12-15T15:20:34.238Z,73.02
2018-12-15T15:21:34.171Z,73.54
2018-12-15T15:22:34.141Z,72.91
2018-12-15T15:23:34.175Z,72.70
2018-12-15T15:24:34.119Z,72.91
2018-12-15T15:25:42.342Z,72.60
2018-12-15T15:26:34.172Z,73.33
2018-12-15T15:27:34.115Z,73.44
2018-12-15T15:28:34.128Z,73.22
2018-12-15T15:29:34.119Z,72.91
2018-12-15T15:30:34.079Z,72.91
2018-12-15T15:31:34.145Z,73.12
2018-12-15T15:32:34.036Z,73.75
2018-12-15T15:33:34.150Z,73.02
2018-12-15T15:34:34.010Z,73.33
2018-12-15T15:35:34.009Z,73.85
2018-12-15T15:36:34.008Z,74.06
2018-12-15T15:37:33.982Z,72.91
2018-12-15T15:38:34.125Z,73.02
2018-12-15T15:39:33.970Z,73.22
2018-12-15T15:40:33.960Z,73.26
2018-12-15T15:41:33.970Z,73.12
2018-12-15T15:42:33.935Z,73.22
2018-12-15T15:43:33.965Z,73.79
2018-12-15T15:44:33.936Z,73.54
2018-12-15T15:45:33.936Z,73.89
2018-12-15T15:46:33.897Z,73.99
2018-12-15T15:47:33.887Z,74.10
2018-12-15T15:48:33.908Z,73.54
2018-12-15T15:49:33.879Z,74.17
2018-12-15T15:50:36.692Z,73.85
2018-12-15T15:51:33.847Z,73.79
2018-12-15T15:52:33.823Z,73.99
2018-12-15T15:53:33.854Z,73.99
2018-12-15T15:54:33.836Z,73.26
2018-12-15T15:55:33.827Z,73.05
2018-12-15T15:56:33.789Z,73.79
2018-12-15T15:57:33.783Z,74.41
2018-12-15T15:58:33.804Z,74.20
2018-12-15T15:59:33.765Z,74.55
2018-12-15T16:00:33.765Z,74.55
2018-12-15T16:01:33.752Z,74.44
2018-12-15T16:02:33.787Z,74.76
2018-12-15T16:03:33.762Z,74.76
2018-12-15T16:04:33.717Z,74.44
2018-12-15T16:05:33.693Z,74.34
2018-12-15T16:06:33.686Z,74.97
2018-12-15T16:07:33.681Z,75.29
2018-12-15T16:08:33.697Z,75.60
2018-12-15T16:09:33.687Z,75.60
2018-12-15T16:10:33.649Z,75.60
2018-12-15T16:11:33.642Z,76.23
2018-12-15T16:12:33.642Z,75.60
2018-12-15T16:13:33.616Z,75.60
2018-12-15T16:14:33.655Z,75.42
2018-12-15T16:15:33.599Z,75.21
2018-12-15T16:16:33.614Z,75.53
2018-12-15T16:17:33.582Z,75.11
2018-12-15T16:18:33.569Z,75.53
2018-12-15T16:19:33.647Z,75.70
2018-12-15T16:20:33.630Z,75.11
2018-12-15T16:21:33.912Z,75.32
2018-12-15T16:22:33.563Z,75.53
2018-12-15T16:23:33.537Z,75.11
2018-12-15T16:24:33.541Z,75.11
2018-12-15T16:25:33.495Z,75.53
2018-12-15T16:26:33.647Z,75.74
2018-12-15T16:27:33.468Z,75.42
2018-12-15T16:28:42.071Z,75.74
2018-12-15T16:29:44.734Z,75.01
2018-12-15T16:30:33.474Z,75.74
2018-12-15T16:31:33.537Z,75.32
2018-12-15T16:32:33.438Z,75.21
2018-12-15T16:33:33.414Z,75.32
2018-12-15T16:34:33.534Z,75.32
2018-12-15T16:35:33.395Z,75.21
2018-12-15T16:36:33.436Z,75.01
2018-12-15T16:37:33.383Z,75.74
2018-12-15T16:38:33.391Z,75.32
2018-12-15T16:39:33.414Z,75.21
2018-12-15T16:40:33.334Z,75.53
2018-12-15T16:41:33.356Z,76.26
2018-12-15T16:42:33.362Z,75.84
2018-12-15T16:43:33.327Z,75.84
2018-12-15T16:44:33.327Z,75.74
2018-12-15T16:45:33.346Z,75.74
2018-12-15T16:46:33.291Z,75.63
2018-12-15T16:47:33.336Z,75.42
2018-12-15T16:48:33.257Z,75.53
2018-12-15T16:49:33.289Z,75.84
2018-12-15T16:50:33.251Z,75.74
2018-12-15T16:51:33.229Z,75.84
2018-12-15T16:52:33.219Z,75.95
2018-12-15T16:53:33.230Z,76.05
2018-12-15T16:54:33.241Z,76.40
2018-12-15T16:55:33.254Z,76.26
2018-12-15T16:56:33.189Z,76.61
2018-12-15T16:57:33.171Z,76.29
2018-12-15T16:58:33.186Z,76.37
2018-12-15T16:59:33.310Z,76.61
2018-12-15T17:00:33.156Z,76.40
2018-12-15T17:01:33.128Z,76.51
2018-12-15T17:02:33.132Z,76.93
2018-12-15T17:03:33.113Z,76.93
2018-12-15T17:04:33.141Z,77.03
2018-12-15T17:05:33.096Z,76.82
2018-12-15T17:06:33.099Z,76.93
2018-12-15T17:07:33.086Z,77.03
2018-12-15T17:08:33.092Z,77.34
2018-12-15T17:09:33.118Z,77.28
2018-12-15T17:10:33.126Z,77.34
2018-12-15T17:11:33.041Z,77.24
2018-12-15T17:12:33.034Z,77.87
2018-12-15T17:13:33.124Z,77.24
2018-12-15T17:14:33.183Z,77.56
2018-12-15T17:15:32.993Z,77.59
2018-12-15T17:16:32.976Z,77.34
2018-12-15T17:17:33.061Z,77.87
2018-12-15T17:18:32.965Z,77.48
2018-12-15T17:19:32.997Z,77.48
2018-12-15T17:20:32.935Z,77.38
2018-12-15T17:21:32.937Z,77.91
2018-12-15T17:22:32.922Z,77.91
2018-12-15T17:23:32.914Z,77.91
2018-12-15T17:24:32.947Z,78.01
2018-12-15T17:25:32.922Z,78.01
2018-12-15T17:26:32.876Z,77.91
2018-12-15T17:27:32.873Z,77.59
2018-12-15T17:28:32.898Z,77.91
2018-12-15T17:29:32.982Z,78.12
2018-12-15T17:30:32.848Z,77.91
2018-12-15T17:31:32.844Z,78.12
2018-12-15T17:32:32.824Z,78.33
2018-12-15T17:33:32.807Z,78.12
2018-12-15T17:34:32.835Z,77.48
2018-12-15T17:35:32.777Z,77.80
2018-12-15T17:36:32.773Z,77.48
2018-12-15T17:37:32.777Z,77.76
2018-12-15T17:38:32.758Z,77.70
2018-12-15T17:39:32.791Z,77.48
2018-12-15T17:40:32.757Z,77.48
2018-12-15T17:41:32.739Z,77.70
2018-12-15T17:42:32.781Z,77.38
2018-12-15T17:43:32.759Z,77.59
2018-12-15T17:44:32.823Z,77.80
2018-12-15T17:45:32.688Z,77.28
2018-12-15T17:46:32.689Z,77.17
2018-12-15T17:47:32.685Z,77.17
2018-12-15T17:48:32.657Z,77.38
2018-12-15T17:49:32.762Z,77.38
2018-12-15T17:50:32.772Z,77.80
2018-12-15T17:51:32.696Z,78.33
2018-12-15T17:52:32.686Z,78.12
2018-12-15T17:53:32.612Z,78.05
2018-12-15T17:54:32.632Z,77.52
2018-12-15T17:55:32.594Z,77.38
2018-12-15T17:56:32.622Z,77.70
2018-12-15T17:57:32.589Z,77.17
2018-12-15T17:58:32.559Z,77.80
2018-12-15T17:59:32.581Z,77.17
2018-12-15T18:00:32.665Z,77.70
2018-12-15T18:01:32.528Z,77.28
2018-12-15T18:02:32.549Z,77.38
2018-12-15T18:03:32.531Z,77.07
2018-12-15T18:04:32.526Z,76.75
2018-12-15T18:05:32.515Z,76.86
2018-12-15T18:06:32.485Z,76.86
2018-12-15T18:07:32.460Z,76.86
2018-12-15T18:08:32.467Z,77.00
2018-12-15T18:09:32.559Z,77.10
2018-12-15T18:10:32.432Z,76.89
2018-12-15T18:11:32.432Z,77.21
2018-12-15T18:12:32.413Z,77.07
2018-12-15T18:13:32.409Z,76.65
2018-12-15T18:14:32.428Z,76.86
2018-12-15T18:15:32.459Z,76.89
2018-12-15T18:16:32.372Z,77.28
2018-12-15T18:17:32.399Z,77.00
2018-12-15T18:18:32.343Z,77.10
2018-12-15T18:19:32.386Z,77.00
2018-12-15T18:20:32.376Z,77.21
2018-12-15T18:21:32.533Z,76.47
2018-12-15T18:22:32.322Z,77.00
2018-12-15T18:23:32.288Z,76.47
2018-12-15T18:24:32.324Z,76.79
2018-12-15T18:25:32.278Z,76.79
2018-12-15T18:26:32.266Z,76.79
2018-12-15T18:27:32.282Z,76.68
2018-12-15T18:28:32.528Z,76.47
2018-12-15T18:29:32.275Z,76.89
2018-12-15T18:30:32.248Z,76.68
2018-12-15T18:31:32.221Z,76.68
2018-12-15T18:32:32.205Z,76.57
2018-12-15T18:33:37.025Z,77.00
2018-12-15T18:34:33.217Z,77.00
2018-12-15T18:35:32.204Z,76.89
2018-12-15T18:36:32.340Z,77.00
2018-12-15T18:37:32.227Z,77.21
2018-12-15T18:38:32.148Z,76.93
2018-12-15T18:39:32.638Z,77.00
2018-12-15T18:40:32.227Z,77.00
2018-12-15T18:41:32.113Z,77.00
2018-12-15T18:42:32.238Z,76.79
2018-12-15T18:43:32.477Z,77.21
2018-12-15T18:44:32.380Z,77.35
2018-12-15T18:45:32.086Z,77.42
2018-12-15T18:46:32.061Z,77.10
2018-12-15T18:47:32.056Z,77.00
2018-12-15T18:48:32.062Z,76.47
2018-12-15T18:49:32.067Z,76.05
2018-12-15T18:50:32.023Z,76.37
2018-12-15T18:51:32.027Z,76.57
2018-12-15T18:52:32.012Z,76.79
2018-12-15T18:53:31.998Z,76.68
2018-12-15T18:54:32.023Z,76.47
2018-12-15T18:55:31.970Z,76.37
2018-12-15T18:56:31.969Z,76.57
2018-12-15T18:57:31.978Z,76.79
2018-12-15T18:58:32.019Z,76.68
2018-12-15T18:59:31.996Z,76.93
2018-12-15T19:00:31.947Z,76.82
2018-12-15T19:01:31.906Z,76.93
2018-12-15T19:02:31.904Z,77.14
2018-12-15T19:03:31.897Z,77.35
2018-12-15T19:04:31.923Z,77.03
2018-12-15T19:05:31.888Z,76.61
2018-12-15T19:06:31.892Z,76.72
2018-12-15T19:07:31.891Z,77.10
2018-12-15T19:08:31.841Z,76.61
2018-12-15T19:09:31.874Z,76.68
2018-12-15T19:10:31.822Z,76.37
2018-12-15T19:11:31.811Z,76.72
2018-12-15T19:12:31.835Z,76.51
2018-12-15T19:13:31.796Z,76.57
2018-12-15T19:14:31.818Z,76.72
2018-12-15T19:15:31.782Z,76.72
2018-12-15T19:16:31.769Z,76.72
2018-12-15T19:17:31.772Z,76.40
2018-12-15T19:18:31.736Z,76.51
2018-12-15T19:19:31.783Z,76.61
2018-12-15T19:20:31.726Z,76.82
2018-12-15T19:21:31.789Z,76.72
2018-12-15T19:22:31.700Z,76.61
2018-12-15T19:23:31.689Z,76.82
2018-12-15T19:24:31.760Z,76.61
2018-12-15T19:25:31.674Z,76.93
2018-12-15T19:26:31.661Z,77.10
2018-12-15T19:27:31.689Z,76.51
2018-12-15T19:28:31.672Z,76.61
2018-12-15T19:29:31.665Z,76.72
2018-12-15T19:30:31.633Z,76.72
2018-12-15T19:31:31.663Z,76.72
2018-12-15T19:32:31.596Z,76.82
2018-12-15T19:33:31.593Z,77.14
2018-12-15T19:34:31.641Z,77.03
2018-12-15T19:35:31.579Z,76.82
2018-12-15T19:36:31.597Z,76.96
2018-12-15T19:37:31.571Z,77.38
2018-12-15T19:38:31.535Z,77.17
2018-12-15T19:39:31.568Z,77.56
2018-12-15T19:40:31.667Z,77.45
2018-12-15T19:41:31.514Z,77.91
2018-12-15T19:42:31.511Z,77.80
2018-12-15T19:43:31.519Z,77.56
2018-12-15T19:44:31.523Z,77.80
2018-12-15T19:45:31.474Z,77.07
2018-12-15T19:46:31.489Z,77.35
2018-12-15T19:47:31.462Z,77.24
2018-12-15T19:48:31.438Z,77.87
2018-12-15T19:49:31.483Z,77.45
2018-12-15T19:50:31.425Z,77.56
2018-12-15T19:51:31.415Z,77.66
2018-12-15T19:52:31.408Z,77.91
2018-12-15T19:53:31.415Z,77.70
2018-12-15T19:54:31.418Z,77.98
2018-12-15T19:55:31.379Z,77.80
2018-12-15T19:56:31.371Z,77.91
2018-12-15T19:57:31.343Z,78.02
2018-12-15T19:58:31.334Z,77.70
2018-12-15T19:59:31.433Z,78.12
2018-12-15T20:00:31.360Z,78.54
2018-12-15T20:01:31.321Z,78.85
2018-12-15T20:02:31.289Z,77.59
2018-12-15T20:03:31.337Z,78.64
2018-12-15T20:04:31.284Z,78.22
2018-12-15T20:05:31.331Z,78.22
2018-12-15T20:06:31.259Z,77.70
2018-12-15T20:07:31.358Z,77.48
2018-12-15T20:08:31.268Z,77.80
2018-12-15T20:09:31.229Z,78.22
2018-12-15T20:10:31.224Z,78.68
2018-12-15T20:11:31.234Z,78.44
2018-12-15T20:12:40.127Z,78.75
2018-12-15T20:13:31.226Z,78.64
2018-12-15T20:14:31.285Z,79.10
2018-12-15T20:15:38.788Z,78.89
2018-12-15T20:16:31.321Z,79.10
2018-12-15T20:17:31.149Z,79.10
2018-12-15T20:18:31.215Z,78.75
2018-12-15T20:19:31.127Z,78.89
2018-12-15T20:20:31.157Z,78.89
2018-12-15T20:21:35.933Z,78.78
2018-12-15T20:22:32.102Z,78.44
2018-12-15T20:23:31.126Z,78.33
2018-12-15T20:24:31.097Z,78.85
2018-12-15T20:25:31.073Z,78.44
2018-12-15T20:26:31.079Z,78.68
2018-12-15T20:27:31.044Z,78.44
2018-12-15T20:28:31.073Z,78.75
2018-12-15T20:29:31.130Z,78.64
2018-12-15T20:30:31.011Z,77.73
2018-12-15T20:31:31.012Z,78.12
2018-12-15T20:32:30.992Z,77.59
2018-12-15T20:33:31.020Z,78.12
2018-12-15T20:34:30.983Z,78.54
2018-12-15T20:35:31.050Z,78.36
2018-12-15T20:36:30.957Z,78.85
2018-12-15T20:37:30.953Z,78.22
2018-12-15T20:38:30.981Z,78.12
2018-12-15T20:39:30.933Z,78.12
2018-12-15T20:40:31.063Z,78.12
2018-12-15T20:41:30.912Z,77.80
2018-12-15T20:42:30.907Z,78.33
2018-12-15T20:43:30.937Z,78.16
2018-12-15T20:44:30.864Z,77.80
2018-12-15T20:45:30.861Z,79.21
2018-12-15T20:46:30.851Z,78.26
2018-12-15T20:47:30.847Z,79.00
2018-12-15T20:48:30.868Z,78.36
2018-12-15T20:49:30.832Z,78.89
2018-12-15T20:50:30.835Z,79.10
2018-12-15T20:51:30.796Z,78.78
2018-12-15T20:52:30.793Z,79.00
2018-12-15T20:53:30.817Z,78.89
2018-12-15T20:54:30.838Z,78.89
2018-12-15T20:55:30.763Z,78.58
2018-12-15T20:56:30.766Z,78.47
2018-12-15T20:57:30.743Z,78.89
2018-12-15T20:58:30.765Z,78.16
2018-12-15T20:59:30.723Z,78.89
2018-12-15T21:00:30.708Z,78.16
2018-12-15T21:01:30.703Z,78.26
2018-12-15T21:02:30.751Z,78.16
2018-12-15T21:03:30.696Z,78.89
2018-12-15T21:04:30.732Z,78.26
2018-12-15T21:05:36.646Z,78.05
2018-12-15T21:06:31.642Z,77.73
2018-12-15T21:07:30.678Z,78.47
2018-12-15T21:08:30.658Z,78.58
2018-12-15T21:09:30.623Z,78.36
2018-12-15T21:10:30.614Z,78.36
2018-12-15T21:11:30.594Z,77.94
2018-12-15T21:12:30.635Z,78.16
2018-12-15T21:13:30.583Z,78.89
2018-12-15T21:14:30.588Z,78.36
2018-12-15T21:15:30.573Z,78.89
2018-12-15T21:16:30.547Z,78.89
2018-12-15T21:17:30.581Z,78.89
2018-12-15T21:18:30.537Z,78.78
2018-12-15T21:19:30.517Z,78.58
2018-12-15T21:20:30.537Z,78.47
2018-12-15T21:21:30.498Z,78.26
2018-12-15T21:22:30.489Z,78.58
2018-12-15T21:23:30.519Z,78.58
2018-12-15T21:24:30.478Z,78.89
2018-12-15T21:25:30.454Z,79.21
2018-12-15T21:26:30.464Z,78.58
2018-12-15T21:27:30.476Z,78.68
2018-12-15T21:28:30.476Z,78.68
2018-12-15T21:29:30.439Z,78.89
2018-12-15T21:30:30.409Z,78.89
2018-12-15T21:31:30.393Z,78.36
2018-12-15T21:32:30.391Z,78.68
2018-12-15T21:33:30.430Z,78.16
2018-12-15T21:34:30.368Z,77.94
2018-12-15T21:35:30.369Z,78.58
2018-12-15T21:36:30.345Z,78.68
2018-12-15T21:37:30.340Z,78.89
2018-12-15T21:38:30.373Z,78.68
2018-12-15T21:39:30.339Z,78.36
2018-12-15T21:40:30.313Z,78.26
2018-12-15T21:41:30.301Z,78.36
2018-12-15T21:42:31.736Z,78.58
2018-12-15T21:43:30.318Z,78.47
2018-12-15T21:44:30.272Z,78.68
2018-12-15T21:45:30.266Z,78.36
2018-12-15T21:46:30.263Z,78.26
2018-12-15T21:47:30.239Z,78.05
2018-12-15T21:48:30.274Z,78.30
2018-12-15T21:49:30.393Z,78.16
2018-12-15T21:50:30.276Z,78.26
2018-12-15T21:51:37.995Z,78.16
2018-12-15T21:52:30.196Z,78.26
2018-12-15T21:53:39.831Z,78.78
2018-12-15T21:54:30.365Z,78.61
2018-12-15T21:55:37.785Z,79.03
2018-12-15T21:56:30.729Z,78.89
2018-12-15T21:57:30.155Z,78.58
2018-12-15T21:58:30.308Z,78.58
2018-12-15T21:59:30.144Z,78.61
2018-12-15T22:00:30.115Z,78.26
2018-12-15T22:01:30.115Z,78.05
2018-12-15T22:02:30.085Z,78.05
2018-12-15T22:03:30.121Z,78.89
2018-12-15T22:04:30.096Z,78.26
2018-12-15T22:05:30.063Z,77.84
2018-12-15T22:06:30.064Z,78.47
2018-12-15T22:07:30.145Z,77.52
2018-12-15T22:08:30.051Z,77.73
2018-12-15T22:09:30.021Z,78.16
2018-12-15T22:10:30.024Z,78.78
2018-12-15T22:11:30.000Z,78.40
2018-12-15T22:12:30.016Z,78.50
2018-12-15T22:13:30.032Z,78.40
2018-12-15T22:14:29.967Z,78.40
2018-12-15T22:15:29.960Z,78.40
2018-12-15T22:16:29.954Z,78.50
2018-12-15T22:17:29.947Z,78.82
2018-12-15T22:18:29.964Z,78.82
2018-12-15T22:19:30.393Z,78.61
2018-12-15T22:20:29.922Z,78.40
2018-12-15T22:21:29.915Z,78.50
2018-12-15T22:22:29.892Z,78.61
2018-12-15T22:23:29.913Z,78.92
2018-12-15T22:24:29.866Z,78.19
2018-12-15T22:25:29.862Z,78.50
2018-12-15T22:26:29.853Z,78.89
2018-12-15T22:27:29.852Z,78.08
2018-12-15T22:28:29.867Z,78.50
2018-12-15T22:29:29.818Z,78.61
2018-12-15T22:30:29.811Z,78.61
2018-12-15T22:31:29.798Z,78.92
2018-12-15T22:32:29.790Z,79.14
2018-12-15T22:33:29.824Z,78.72
2018-12-15T22:34:29.772Z,78.50
2018-12-15T22:35:29.772Z,79.14
2018-12-15T22:36:29.773Z,79.14
2018-12-15T22:37:29.781Z,78.82
2018-12-15T22:38:29.797Z,78.82
2018-12-15T22:39:29.733Z,78.92
2018-12-15T22:40:29.714Z,78.08
2018-12-15T22:41:29.804Z,78.16
2018-12-15T22:42:29.781Z,78.36
2018-12-15T22:43:29.752Z,78.05
2018-12-15T22:44:29.693Z,78.05
2018-12-15T22:45:29.680Z,77.98
2018-12-15T22:46:29.667Z,78.05
2018-12-15T22:47:29.647Z,78.30
2018-12-15T22:48:29.687Z,78.36
2018-12-15T22:49:29.640Z,77.73
2018-12-15T22:50:29.624Z,78.16
2018-12-15T22:51:29.681Z,77.73
2018-12-15T22:52:29.698Z,77.94
2018-12-15T22:53:29.704Z,78.08
2018-12-15T22:54:29.571Z,78.05
2018-12-15T22:55:29.616Z,77.42
2018-12-15T22:56:29.595Z,77.52
2018-12-15T22:57:29.568Z,77.84
2018-12-15T22:58:29.571Z,77.94
2018-12-15T22:59:29.553Z,77.84
2018-12-15T23:00:29.532Z,77.94
2018-12-15T23:01:29.508Z,77.62
2018-12-15T23:02:29.536Z,77.84
2018-12-15T23:03:29.520Z,77.73
2018-12-15T23:04:29.478Z,78.30
2018-12-15T23:05:29.466Z,77.87
2018-12-15T23:06:29.480Z,77.66
2018-12-15T23:07:30.199Z,77.94
2018-12-15T23:08:29.466Z,77.94
2018-12-15T23:09:29.429Z,77.73
2018-12-15T23:10:29.423Z,77.84
2018-12-15T23:11:29.429Z,77.62
2018-12-15T23:12:29.390Z,78.89
2018-12-15T23:13:29.416Z,78.05
2018-12-15T23:14:29.374Z,77.98
2018-12-15T23:15:29.359Z,78.16
2018-12-15T23:16:29.352Z,77.84
2018-12-15T23:17:29.358Z,77.94
2018-12-15T23:18:29.372Z,77.98
2018-12-15T23:19:29.317Z,77.98
2018-12-15T23:20:29.312Z,77.94
2018-12-15T23:21:29.310Z,77.94
2018-12-15T23:22:29.329Z,77.42
2018-12-15T23:23:29.335Z,77.84
2018-12-15T23:24:29.335Z,77.84
2018-12-15T23:25:29.265Z,78.26
2018-12-15T23:26:29.246Z,78.30
2018-12-15T23:27:29.242Z,77.76
2018-12-15T23:28:29.262Z,78.26
2018-12-15T23:29:29.238Z,78.26
2018-12-15T23:30:29.220Z,77.94
2018-12-15T23:31:29.205Z,78.36
2018-12-15T23:32:29.199Z,78.05
2018-12-15T23:33:29.222Z,77.98
2018-12-15T23:34:29.169Z,77.84
2018-12-15T23:35:29.185Z,78.05
2018-12-15T23:36:29.160Z,78.05
2018-12-15T23:37:29.146Z,77.98
2018-12-15T23:38:29.170Z,77.87
2018-12-15T23:39:29.127Z,78.05
2018-12-15T23:40:29.116Z,77.62
2018-12-15T23:41:29.130Z,77.84
2018-12-15T23:42:29.099Z,78.36
2018-12-15T23:43:29.114Z,77.73
2018-12-15T23:44:29.084Z,77.76
2018-12-15T23:45:29.064Z,77.31
2018-12-15T23:46:29.050Z,77.62
2018-12-15T23:47:29.052Z,77.52
2018-12-15T23:48:29.093Z,77.94
2018-12-15T23:49:29.017Z,77.31
2018-12-15T23:50:29.028Z,78.05
2018-12-15T23:51:29.002Z,77.73
2018-12-15T23:52:28.994Z,77.52
2018-12-15T23:53:29.017Z,77.42
2018-12-15T23:54:28.992Z,77.21
2018-12-15T23:55:28.961Z,77.42
2018-12-15T23:56:28.953Z,77.56
2018-12-15T23:57:28.962Z,77.94
2018-12-15T23:58:28.966Z,77.62
2018-12-15T23:59:28.926Z,77.84
